Time;durP1;ratioP1;P1;durP2;ratioP2;P2;SDS_P1;SDS_P2;PMS_P1;PMS_P2;Temp;Humidity;BMP_temperature;BMP_pressure;BME280_temperature;BME280_humidity;BME280_pressure;Samples;Min_cycle;Max_cycle;Signal;HPM_P1;HPM_P2
2021/04/13 00:00:19;;;;;;;;;;;;;;;0.07;100.00;96744.53;1037255;28;19917;-68
2021/04/13 00:00:49;;;;;;;;;;;;;;;0.06;100.00;96743.75;1039028;28;19916;-67
2021/04/13 00:01:26;;;;;;;;;;;;;;;0.06;100.00;96740.38;1039516;28;19920;-67
2021/04/13 00:02:12;;;;;;;;;;;;;;;0.05;100.00;96743.94;1039476;28;20015;-66
2021/04/13 00:02:46;;;;;;;;;;;;;;;0.07;100.00;96742.78;1037216;28;19958;-66
2021/04/13 00:03:16;;;;;;;;;;;;;;;0.07;100.00;96742.78;1039635;28;19905;-67
2021/04/13 00:03:46;;;;;;;;;;;;;;;0.08;100.00;96741.00;1040954;28;19921;-65
2021/04/13 00:04:17;;;;;;;;;;;;;;;0.08;100.00;96744.41;1041586;28;19913;-66
2021/04/13 00:04:48;;;;;;;;;;;;;;;0.07;100.00;96742.78;1034749;28;20374;-67
2021/04/13 00:05:24;;;;;;;;;;;;;;;0.07;100.00;96745.38;1035261;28;19913;-67
2021/04/13 00:05:54;;;;;;;;;;;;;;;0.06;100.00;96737.78;1031432;28;20507;-67
2021/04/13 00:06:26;;;;;;;;;;;;;;;0.06;100.00;96741.16;1030985;28;19956;-68
2021/04/13 00:06:57;;;;;;;;;;;;;;;0.05;100.00;96741.34;1034709;28;19917;-68
2021/04/13 00:07:29;;;;;;;;;;;;;;;0.06;100.00;96737.78;1035386;28;19936;-66
2021/04/13 00:08:00;;;;;;;;;;;;;;;0.06;100.00;96745.53;1042491;28;19916;-67
2021/04/13 00:08:31;;;;;;;;;;;;;;;0.04;100.00;96742.34;1038237;28;20406;-65
2021/04/13 00:09:19;;;;;;;;;;;;;;;0.03;100.00;96744.09;1038096;28;19925;-67
2021/04/13 00:09:49;;;;;;;;;;;;;;;0.03;100.00;96744.09;1032636;28;20007;-68
2021/04/13 00:10:30;;;;;;;;;;;;;;;0.03;100.00;96745.88;1031478;28;19964;-67
2021/04/13 00:11:03;;;;;;;;;;;;;;;0.03;100.00;96746.66;1032893;28;20633;-67
2021/04/13 00:11:34;;;;;;;;;;;;;;;0.03;100.00;96740.72;1040730;28;19919;-67
2021/04/13 00:12:04;;;;;;;;;;;;;;;0.02;100.00;96742.50;1043372;28;19919;-66
2021/04/13 00:12:34;;;;;;;;;;;;;;;0.02;100.00;96739.91;1037182;28;19924;-65
2021/04/13 00:13:05;;;;;;;;;;;;;;;0.03;100.00;96744.09;1038815;28;19917;-68
2021/04/13 00:13:37;;;;;;;;;;;;;;;0.04;100.00;96737.19;1039239;28;20468;-67
2021/04/13 00:14:08;;;;;;;;;;;;;;;0.03;100.00;96736.34;1039909;28;19913;-66
2021/04/13 00:14:39;;;;;;;;;;;;;;;0.04;100.00;96742.34;1033495;28;19917;-67
2021/04/13 00:15:11;;;;;;;;;;;;;;;0.03;100.00;96738.94;1033495;28;20016;-67
2021/04/13 00:15:54;;;;;;;;;;;;;;;0.02;100.00;96739.91;1031892;28;19921;-66
2021/04/13 00:16:30;;;;;;;;;;;;;;;0.01;100.00;96733.16;1039489;28;19913;-67
2021/04/13 00:17:02;;;;;;;;;;;;;;;0.02;100.00;96739.91;1039247;28;19999;-68
2021/04/13 00:17:32;;;;;;;;;;;;;;;0.03;100.00;96741.50;1039140;28;19909;-68
2021/04/13 00:18:03;;;;;;;;;;;;;;;0.01;100.00;96738.31;1038611;28;20003;-66
2021/04/13 00:18:33;;;;;;;;;;;;;;;0.02;100.00;96739.91;1035258;28;19913;-65
2021/04/13 00:19:06;;;;;;;;;;;;;;;0.02;100.00;96742.50;1032722;28;19913;-66
2021/04/13 00:19:55;;;;;;;;;;;;;;;0.02;100.00;96739.91;1031404;28;20403;-66
2021/04/13 00:20:44;;;;;;;;;;;;;;;0.03;100.00;96740.72;1031247;28;19945;-68
2021/04/13 00:21:16;;;;;;;;;;;;;;;0.03;100.00;96741.50;1024969;28;19914;-66
2021/04/13 00:21:46;;;;;;;;;;;;;;;0.02;100.00;96739.91;1026494;28;20444;-66
2021/04/13 00:22:17;;;;;;;;;;;;;;;0.04;100.00;96742.34;1029988;28;20466;-67
2021/04/13 00:22:48;;;;;;;;;;;;;;;0.02;100.00;96739.91;1028957;28;19921;-67
2021/04/13 00:23:18;;;;;;;;;;;;;;;0.04;100.00;96742.34;1030841;28;19996;-67
2021/04/13 00:23:48;;;;;;;;;;;;;;;0.05;100.00;96736.19;1027155;28;19910;-67
2021/04/13 00:24:19;;;;;;;;;;;;;;;0.03;100.00;96738.94;1023452;28;19997;-67
2021/04/13 00:24:50;;;;;;;;;;;;;;;-0.16;100.00;96711.81;1024950;28;20295;-64
2021/04/13 00:25:49;;;;;;;;;;;;;;;0.04;100.00;96737.19;1026673;28;19914;-66
2021/04/13 00:26:23;;;;;;;;;;;;;;;0.04;100.00;96737.97;1019158;29;20361;-66
2021/04/13 00:26:56;;;;;;;;;;;;;;;0.03;100.00;96738.13;1033354;28;20421;-66
2021/04/13 00:27:27;;;;;;;;;;;;;;;0.04;100.00;96740.56;1029867;28;19918;-68
2021/04/13 00:27:57;;;;;;;;;;;;;;;0.05;100.00;96741.34;1032034;28;19913;-67
2021/04/13 00:28:29;;;;;;;;;;;;;;;0.05;100.00;96738.78;1031710;28;19917;-67
2021/04/13 00:29:00;;;;;;;;;;;;;;;0.06;100.00;96736.00;1031177;28;19920;-66
2021/04/13 00:29:30;;;;;;;;;;;;;;;0.07;100.00;96736.81;1029045;28;19914;-67
2021/04/13 00:30:04;;;;;;;;;;;;;;;0.06;100.00;96736.00;1031460;28;19956;-67
2021/04/13 00:30:42;;;;;;;;;;;;;;;0.06;100.00;96737.78;1038941;28;19917;-66
2021/04/13 00:31:18;;;;;;;;;;;;;;;0.05;100.00;96739.56;1040702;28;19935;-67
2021/04/13 00:31:49;;;;;;;;;;;;;;;0.06;100.00;96735.22;1038519;28;19920;-66
2021/04/13 00:32:22;;;;;;;;;;;;;;;0.06;100.00;96741.16;1039135;28;19909;-68
2021/04/13 00:32:55;;;;;;;;;;;;;;;0.06;100.00;96738.59;1043589;28;19913;-68
2021/04/13 00:33:27;;;;;;;;;;;;;;;0.06;100.00;96742.94;1043320;28;19913;-66
2021/04/13 00:33:57;;;;;;;;;;;;;;;0.08;100.00;96736.66;1037728;28;19917;-66
2021/04/13 00:34:32;;;;;;;;;;;;;;;0.08;100.00;96744.41;1038723;28;19920;-66
2021/04/13 00:35:29;;;;;;;;;;;;;;;0.06;100.00;96741.16;1039463;28;19909;-66
2021/04/13 00:36:08;;;;;;;;;;;;;;;0.07;100.00;96734.22;1035384;28;19924;-67
2021/04/13 00:36:38;;;;;;;;;;;;;;;0.08;100.00;96738.44;1033812;28;20363;-67
2021/04/13 00:37:20;;;;;;;;;;;;;;;0.06;100.00;96741.16;1031884;28;19992;-68
2021/04/13 00:37:50;;;;;;;;;;;;;;;0.06;100.00;96738.59;1035040;28;20059;-66
2021/04/13 00:38:29;;;;;;;;;;;;;;;0.05;100.00;96744.72;1036158;28;19917;-66
2021/04/13 00:38:59;;;;;;;;;;;;;;;0.04;100.00;96740.56;1042997;28;19955;-67
2021/04/13 00:39:30;;;;;;;;;;;;;;;0.05;100.00;96744.72;1043420;28;19959;-67
2021/04/13 00:40:13;;;;;;;;;;;;;;;0.06;100.00;96745.53;1039308;28;19968;-66
2021/04/13 00:40:44;;;;;;;;;;;;;;;0.05;100.00;96749.91;1032581;28;19921;-67
2021/04/13 00:41:19;;;;;;;;;;;;;;;0.04;100.00;96742.34;1031228;28;19913;-66
2021/04/13 00:41:51;;;;;;;;;;;;;;;0.04;100.00;96745.72;1037175;28;19960;-67
2021/04/13 00:42:22;;;;;;;;;;;;;;;0.03;100.00;96745.88;1035642;28;20361;-67
2021/04/13 00:42:53;;;;;;;;;;;;;;;0.02;100.00;96734.75;1034254;28;19921;-66
2021/04/13 00:43:24;;;;;;;;;;;;;;;0.01;100.00;96740.91;1034441;28;19917;-67
2021/04/13 00:44:01;;;;;;;;;;;;;;;0.00;100.00;96741.88;1031378;28;19913;-68
2021/04/13 00:44:32;;;;;;;;;;;;;;;0.01;100.00;96737.50;1031387;28;20269;-67
2021/04/13 00:45:06;;;;;;;;;;;;;;;-0.02;100.00;96739.44;1030595;28;19914;-70
2021/04/13 00:45:38;;;;;;;;;;;;;;;-0.03;100.00;96742.22;1031574;28;19948;-66
2021/04/13 00:46:08;;;;;;;;;;;;;;;-0.02;100.00;96743.81;1039239;28;20364;-66
2021/04/13 00:46:41;;;;;;;;;;;;;;;-0.02;100.00;96746.41;1032024;28;19917;-66
2021/04/13 00:47:19;;;;;;;;;;;;;;;-0.02;100.00;96749.78;1030104;28;19914;-65
2021/04/13 00:47:50;;;;;;;;;;;;;;;-0.02;100.00;96746.41;1028854;28;19914;-68
2021/04/13 00:48:22;;;;;;;;;;;;;;;-0.03;100.00;96744.78;1032144;28;19920;-68
2021/04/13 00:48:52;;;;;;;;;;;;;;;-0.04;100.00;96741.38;1037987;28;19913;-68
2021/04/13 00:49:23;;;;;;;;;;;;;;;-0.02;100.00;96743.81;1034531;28;19913;-66
2021/04/13 00:49:54;;;;;;;;;;;;;;;-0.02;100.00;96748.97;1025223;28;20012;-70
2021/04/13 00:50:27;;;;;;;;;;;;;;;-0.03;100.00;96739.63;1019226;29;19931;-67
2021/04/13 00:51:02;;;;;;;;;;;;;;;-0.04;100.00;96738.00;1030446;28;19918;-67
2021/04/13 00:51:36;;;;;;;;;;;;;;;-0.04;100.00;96740.59;1028944;28;19929;-68
2021/04/13 00:52:13;;;;;;;;;;;;;;;-0.03;100.00;96752.53;1026570;28;19914;-68
2021/04/13 00:52:45;;;;;;;;;;;;;;;-0.04;100.00;96738.81;1022462;28;20438;-69
2021/04/13 00:53:24;;;;;;;;;;;;;;;-0.05;100.00;96750.09;1027244;28;19925;-68
2021/04/13 00:54:01;;;;;;;;;;;;;;;-0.04;100.00;96750.91;1030164;28;19913;-66
2021/04/13 00:54:32;;;;;;;;;;;;;;;-0.05;100.00;96749.31;1033084;28;19920;-65
2021/04/13 00:55:04;;;;;;;;;;;;;;;-0.06;100.00;96752.88;1035240;28;19920;-66
2021/04/13 00:55:43;;;;;;;;;;;;;;;-0.06;100.00;96742.56;1034125;28;19913;-67
2021/04/13 00:56:13;;;;;;;;;;;;;;;-0.04;100.00;96748.31;1032429;28;20306;-65
2021/04/13 00:56:44;;;;;;;;;;;;;;;-0.06;100.00;96747.72;1035864;28;19913;-67
2021/04/13 00:57:16;;;;;;;;;;;;;;;-0.07;100.00;96753.81;1029911;28;19914;-67
2021/04/13 00:57:47;;;;;;;;;;;;;;;-0.09;100.00;96746.28;1030128;28;19917;-67
2021/04/13 00:58:20;;;;;;;;;;;;;;;-0.09;100.00;96748.06;1022647;28;20005;-67
2021/04/13 00:59:04;;;;;;;;;;;;;;;-0.09;100.00;96748.06;1025472;28;20037;-67
2021/04/13 00:59:35;;;;;;;;;;;;;;;-0.09;100.00;96743.69;1027067;28;19962;-68
2021/04/13 01:00:05;;;;;;;;;;;;;;;-0.09;100.00;96748.84;1027218;28;20024;-67
2021/04/13 01:00:39;;;;;;;;;;;;;;;-0.09;100.00;96742.91;1021204;29;19913;-68
2021/04/13 01:01:30;;;;;;;;;;;;;;;-0.09;100.00;96748.06;1026555;28;19910;-67
2021/04/13 01:02:03;;;;;;;;;;;;;;;-0.09;100.00;96748.06;1034561;28;19910;-67
2021/04/13 01:02:33;;;;;;;;;;;;;;;-0.11;100.00;96739.66;1033421;28;20319;-64
2021/04/13 01:03:04;;;;;;;;;;;;;;;-0.09;100.00;96742.91;1022673;28;19982;-66
2021/04/13 01:03:34;;;;;;;;;;;;;;;-0.10;100.00;96751.59;1026775;28;19913;-67
2021/04/13 01:04:15;;;;;;;;;;;;;;;-0.10;100.00;96739.50;1031198;28;19941;-67
2021/04/13 01:04:45;;;;;;;;;;;;;;;-0.09;100.00;96742.91;1025375;28;20775;-68
2021/04/13 01:05:19;;;;;;;;;;;;;;;-0.10;100.00;96744.69;1020853;28;19915;-68
2021/04/13 01:05:53;;;;;;;;;;;;;;;-0.10;100.00;96747.25;1025115;28;20379;-66
2021/04/13 01:06:24;;;;;;;;;;;;;;;-0.10;100.00;96743.84;1031733;28;19925;-65
2021/04/13 01:07:03;;;;;;;;;;;;;;;-0.11;100.00;96745.63;1039311;28;19951;-68
2021/04/13 01:07:34;;;;;;;;;;;;;;;-0.10;100.00;96738.69;1039201;28;19920;-67
2021/04/13 01:08:23;;;;;;;;;;;;;;;-0.07;100.00;96746.09;1041655;28;19913;-68
2021/04/13 01:09:00;;;;;;;;;;;;;;;-0.08;100.00;96744.50;1032596;28;20043;-67
2021/04/13 01:09:30;;;;;;;;;;;;;;;-0.10;100.00;96746.44;1034717;28;19960;-66
2021/04/13 01:10:07;;;;;;;;;;;;;;;-0.10;100.00;96742.09;1031116;28;19918;-66
2021/04/13 01:10:37;;;;;;;;;;;;;;;-0.09;100.00;96748.06;1034268;28;19940;-68
2021/04/13 01:11:17;;;;;;;;;;;;;;;-0.11;100.00;96747.41;1032745;28;20377;-68
2021/04/13 01:12:08;;;;;;;;;;;;;;;-0.10;100.00;96746.44;1030333;28;20533;-66
2021/04/13 01:12:39;;;;;;;;;;;;;;;-0.10;100.00;96749.00;1029885;28;19913;-66
2021/04/13 01:13:10;;;;;;;;;;;;;;;-0.09;100.00;96743.69;1037463;28;20326;-67
2021/04/13 01:13:40;;;;;;;;;;;;;;;-0.09;100.00;96746.28;1034126;28;19909;-67
2021/04/13 01:14:10;;;;;;;;;;;;;;;-0.09;100.00;96746.28;1035313;28;19909;-67
2021/04/13 01:14:41;;;;;;;;;;;;;;;-0.09;100.00;96746.28;1035282;28;19916;-67
2021/04/13 01:15:12;;;;;;;;;;;;;;;-0.12;100.00;96743.22;1022284;28;20785;-66
2021/04/13 01:15:43;;;;;;;;;;;;;;;-0.10;100.00;96746.44;1026685;28;19914;-66
2021/04/13 01:16:13;;;;;;;;;;;;;;;-0.11;100.00;96745.63;1023203;29;19914;-67
2021/04/13 01:16:46;;;;;;;;;;;;;;;-0.10;100.00;96746.44;1027742;28;20332;-67
2021/04/13 01:17:16;;;;;;;;;;;;;;;-0.10;100.00;96749.00;1030214;28;19916;-65
2021/04/13 01:17:47;;;;;;;;;;;;;;;-0.12;100.00;96744.03;1021591;28;20567;-66
2021/04/13 01:18:18;;;;;;;;;;;;;;;-0.13;100.00;96747.59;1031172;28;19914;-67
2021/04/13 01:18:50;;;;;;;;;;;;;;;-0.12;100.00;96749.19;1027238;28;20491;-66
2021/04/13 01:19:21;;;;;;;;;;;;;;;-0.11;100.00;96747.41;1031270;28;20543;-66
2021/04/13 01:20:14;;;;;;;;;;;;;;;-0.10;100.00;96741.25;1032881;28;19914;-66
2021/04/13 01:21:00;;;;;;;;;;;;;;;-0.11;100.00;96750.00;1037623;28;19914;-67
2021/04/13 01:21:45;;;;;;;;;;;;;;;-0.12;100.00;96743.22;1034514;28;19971;-66
2021/04/13 01:22:21;;;;;;;;;;;;;;;-0.11;100.00;96737.88;1027209;28;19995;-67
2021/04/13 01:23:08;;;;;;;;;;;;;;;-0.09;100.00;96742.91;1031587;28;20040;-66
2021/04/13 01:24:13;;;;;;;;;;;;;;;-0.12;100.00;96743.22;1035047;28;19909;-65
2021/04/13 01:24:38;;;;;;;;;;;;;;;-0.11;100.00;96742.25;1037700;28;19921;-67
2021/04/13 01:25:09;;;;;;;;;;;;;;;-0.12;100.00;96743.22;1037263;28;20027;-68
2021/04/13 01:25:41;;;;;;;;;;;;;;;-0.13;100.00;96744.22;1038727;28;19921;-67
2021/04/13 01:26:11;;;;;;;;;;;;;;;-0.14;100.00;96748.53;1033617;28;19975;-65
2021/04/13 01:26:45;;;;;;;;;;;;;;;-0.13;100.00;96746.78;1038619;28;20378;-67
2021/04/13 01:27:16;;;;;;;;;;;;;;;-0.14;100.00;96745.16;1043332;28;19912;-67
2021/04/13 01:27:56;;;;;;;;;;;;;;;-0.14;100.00;96745.16;1038365;28;20297;-67
2021/04/13 01:28:28;;;;;;;;;;;;;;;-0.15;100.00;96749.53;1036383;28;19963;-66
2021/04/13 01:28:58;;;;;;;;;;;;;;;-0.14;100.00;96745.97;1034052;28;19996;-67
2021/04/13 01:29:29;;;;;;;;;;;;;;;-0.13;100.00;96746.78;1036114;28;20391;-66
2021/04/13 01:30:02;;;;;;;;;;;;;;;-0.15;100.00;96744.38;1035011;28;19913;-66
2021/04/13 01:30:37;;;;;;;;;;;;;;;-0.14;100.00;96750.31;1034350;28;20307;-66
2021/04/13 01:31:09;;;;;;;;;;;;;;;-0.15;100.00;96744.38;1037489;28;19946;-66
2021/04/13 01:31:46;;;;;;;;;;;;;;;-0.16;100.00;96745.34;1038634;28;20274;-67
2021/04/13 01:32:17;;;;;;;;;;;;;;;-0.16;100.00;96742.78;1037483;28;19913;-67
2021/04/13 01:32:47;;;;;;;;;;;;;;;-0.15;100.00;96746.16;1036687;28;19901;-67
2021/04/13 01:33:19;;;;;;;;;;;;;;;-0.16;100.00;96747.94;1026613;28;19913;-68
2021/04/13 01:33:53;;;;;;;;;;;;;;;-0.16;100.00;96744.56;1031315;28;20510;-67
2021/04/13 01:34:59;;;;;;;;;;;;;;;-0.17;100.00;96746.31;1040027;28;19960;-67
2021/04/13 01:35:30;;;;;;;;;;;;;;;-0.15;100.00;96738.41;1047784;28;20007;-66
2021/04/13 01:36:00;;;;;;;;;;;;;;;-0.15;100.00;96743.56;1045679;28;19916;-66
2021/04/13 01:36:31;;;;;;;;;;;;;;;-0.15;100.00;96744.38;1039988;28;19917;-66
2021/04/13 01:37:29;;;;;;;;;;;;;;;-0.14;100.00;96747.75;1041792;28;20130;-67
2021/04/13 01:39:10;;;;;;;;;;;;;;;-0.13;100.00;96749.38;1041372;28;19939;-66
2021/04/13 01:39:50;;;;;;;;;;;;;;;-0.12;100.00;96745.81;1039293;28;19928;-67
2021/04/13 01:40:26;;;;;;;;;;;;;;;-0.11;100.00;96752.56;1043394;28;19912;-65
2021/04/13 01:41:19;;;;;;;;;;;;;;;-0.11;100.00;96750.00;1040069;28;20439;-67
2021/04/13 01:42:25;;;;;;;;;;;;;;;-0.12;100.00;96748.38;1031558;28;19936;-66
2021/04/13 01:42:56;;;;;;;;;;;;;;;-0.38;100.00;96713.38;1031981;28;19914;-66
2021/04/13 01:43:26;;;;;;;;;;;;;;;-0.12;100.00;96749.19;1030723;28;19959;-66
2021/04/13 01:43:56;;;;;;;;;;;;;;;-0.13;100.00;96747.59;1039159;28;19921;-67
2021/04/13 01:44:34;;;;;;;;;;;;;;;-0.11;100.00;96753.38;1044198;28;20441;-67
2021/04/13 01:45:06;;;;;;;;;;;;;;;-0.12;100.00;96746.59;1048202;28;19916;-66
2021/04/13 01:45:36;;;;;;;;;;;;;;;-0.08;100.00;96749.66;1039820;28;19928;-66
2021/04/13 01:46:06;;;;;;;;;;;;;;;-0.07;100.00;96748.66;1039778;28;20325;-67
2021/04/13 01:46:37;;;;;;;;;;;;;;;-0.08;100.00;96753.03;1043966;28;19913;-67
2021/04/13 01:47:08;;;;;;;;;;;;;;;-0.09;100.00;96756.59;1039706;28;20008;-66
2021/04/13 01:47:38;;;;;;;;;;;;;;;-0.07;100.00;96756.41;1034300;28;19919;-65
2021/04/13 01:48:10;;;;;;;;;;;;;;;-0.09;100.00;96753.22;1030711;28;20509;-67
2021/04/13 01:48:40;;;;;;;;;;;;;;;-0.06;100.00;96756.25;1027958;28;20379;-68
2021/04/13 01:49:10;;;;;;;;;;;;;;;-0.05;100.00;96760.44;1035917;28;19909;-67
2021/04/13 01:49:42;;;;;;;;;;;;;;;-0.06;100.00;96753.69;1035230;28;19925;-66
2021/04/13 01:50:17;;;;;;;;;;;;;;;-0.07;100.00;96748.66;1031356;28;19918;-67
2021/04/13 01:50:53;;;;;;;;;;;;;;;-0.05;100.00;96759.63;1030173;28;19925;-67
2021/04/13 01:51:23;;;;;;;;;;;;;;;-0.05;100.00;96750.09;1023978;29;19918;-67
2021/04/13 01:51:53;;;;;;;;;;;;;;;-0.08;100.00;96759.97;1023484;28;19918;-67
2021/04/13 01:52:24;;;;;;;;;;;;;;;-0.10;100.00;96747.25;1030409;28;19910;-67
2021/04/13 01:53:02;;;;;;;;;;;;;;;-0.06;100.00;96753.69;1031467;28;19925;-67
2021/04/13 01:53:42;;;;;;;;;;;;;;;-0.09;100.00;96753.22;1036088;28;19913;-66
2021/04/13 01:54:13;;;;;;;;;;;;;;;-0.07;100.00;96756.41;1032356;28;20068;-66
2021/04/13 01:54:44;;;;;;;;;;;;;;;-0.11;100.00;96744.81;1026749;28;20318;-67
2021/04/13 01:55:17;;;;;;;;;;;;;;;-0.11;100.00;96752.56;1029130;28;19921;-67
2021/04/13 01:55:50;;;;;;;;;;;;;;;-0.12;100.00;96748.38;1031929;28;19921;-66
2021/04/13 01:56:35;;;;;;;;;;;;;;;-0.11;100.00;96755.16;1034236;28;19940;-65
2021/04/13 01:57:13;;;;;;;;;;;;;;;-0.06;100.00;96747.72;1039598;28;19912;-67
2021/04/13 01:57:48;;;;;;;;;;;;;;;-0.07;100.00;96749.50;1038581;28;19996;-68
2021/04/13 01:58:23;;;;;;;;;;;;;;;-0.06;100.00;96758.03;1038821;28;19909;-68
2021/04/13 01:59:07;;;;;;;;;;;;;;;-0.07;100.00;96754.66;1034354;28;19931;-66
2021/04/13 01:59:40;;;;;;;;;;;;;;;-0.06;100.00;96752.88;1039145;28;19901;-67
2021/04/13 02:00:18;;;;;;;;;;;;;;;-0.09;100.00;96746.28;1035939;28;19901;-67
2021/04/13 02:00:52;;;;;;;;;;;;;;;-0.11;100.00;96750.00;1028325;28;19912;-66
2021/04/13 02:01:26;;;;;;;;;;;;;;;-0.10;100.00;96755.00;1025444;28;19913;-66
2021/04/13 02:01:57;;;;;;;;;;;;;;;-0.11;100.00;96750.00;1029731;28;19906;-67
2021/04/13 02:02:28;;;;;;;;;;;;;;;-0.12;100.00;96750.97;1032638;28;19906;-65
2021/04/13 02:03:09;;;;;;;;;;;;;;;-0.12;100.00;96753.56;1034656;28;19901;-68
2021/04/13 02:03:44;;;;;;;;;;;;;;;-0.13;100.00;96750.16;1033714;28;19928;-66
2021/04/13 02:04:20;;;;;;;;;;;;;;;-0.12;100.00;96754.34;1035595;28;19920;-67
2021/04/13 02:04:53;;;;;;;;;;;;;;;-0.12;100.00;96746.59;1034065;28;19913;-66
2021/04/13 02:05:27;;;;;;;;;;;;;;;-0.12;100.00;96753.56;1036714;28;20040;-66
2021/04/13 02:05:59;;;;;;;;;;;;;;;-0.12;100.00;96758.72;1038444;28;20083;-68
2021/04/13 02:06:30;;;;;;;;;;;;;;;-0.12;100.00;96753.56;1041308;28;19916;-67
2021/04/13 02:07:14;;;;;;;;;;;;;;;-0.12;100.00;96754.34;1042146;28;19913;-68
2021/04/13 02:08:01;;;;;;;;;;;;;;;-0.14;100.00;96751.13;1036937;28;19913;-67
2021/04/13 02:08:35;;;;;;;;;;;;;;;-0.15;100.00;96754.69;1031931;28;19980;-67
2021/04/13 02:09:26;;;;;;;;;;;;;;;-0.16;100.00;96750.50;1034084;28;20385;-67
2021/04/13 02:10:00;;;;;;;;;;;;;;;-0.15;100.00;96753.88;1036449;28;19913;-67
2021/04/13 02:10:41;;;;;;;;;;;;;;;-0.15;100.00;96753.88;1035945;28;20017;-67
2021/04/13 02:11:22;;;;;;;;;;;;;;;-0.16;100.00;96754.88;1027621;28;19952;-67
2021/04/13 02:12:01;;;;;;;;;;;;;;;-0.15;100.00;96753.88;1036921;28;19919;-67
2021/04/13 02:12:33;;;;;;;;;;;;;;;-0.15;100.00;96748.72;1040001;28;19909;-67
2021/04/13 02:13:24;;;;;;;;;;;;;;;-0.39;100.00;96719.53;1039277;28;19975;-66
2021/04/13 02:13:54;;;;;;;;;;;;;;;-0.15;100.00;96754.69;1035167;28;20000;-66
2021/04/13 02:14:24;;;;;;;;;;;;;;;-0.15;100.00;96753.88;1036474;28;20373;-67
2021/04/13 02:15:01;;;;;;;;;;;;;;;-0.15;100.00;96748.72;1039856;28;19924;-65
2021/04/13 02:15:50;;;;;;;;;;;;;;;-0.15;100.00;96751.31;1034787;28;19913;-67
2021/04/13 02:16:29;;;;;;;;;;;;;;;-0.16;100.00;96754.88;1039386;28;19963;-67
2021/04/13 02:17:05;;;;;;;;;;;;;;;-0.15;100.00;96759.03;1035501;28;19917;-67
2021/04/13 02:17:43;;;;;;;;;;;;;;;-0.14;100.00;96756.28;1031639;28;20426;-67
2021/04/13 02:18:16;;;;;;;;;;;;;;;-0.14;100.00;96752.91;1021563;28;20497;-66
2021/04/13 02:18:47;;;;;;;;;;;;;;;-0.13;100.00;96757.09;1027604;28;19913;-68
2021/04/13 02:19:17;;;;;;;;;;;;;;;-0.13;100.00;96752.75;1035828;28;19921;-68
2021/04/13 02:19:48;;;;;;;;;;;;;;;-0.14;100.00;96750.31;1032117;28;19920;-67
2021/04/13 02:20:19;;;;;;;;;;;;;;;-0.15;100.00;96746.16;1029077;28;19920;-63
2021/04/13 02:20:50;;;;;;;;;;;;;;;-0.15;100.00;96751.31;1035262;28;20357;-67
2021/04/13 02:21:29;;;;;;;;;;;;;;;-0.15;100.00;96756.47;1030156;28;20048;-68
2021/04/13 02:22:04;;;;;;;;;;;;;;;-0.15;100.00;96749.53;1029534;28;19929;-67
2021/04/13 02:22:34;;;;;;;;;;;;;;;-0.15;100.00;96751.31;1031795;28;19996;-65
2021/04/13 02:23:04;;;;;;;;;;;;;;;-0.16;100.00;96747.13;1030694;28;20386;-66
2021/04/13 02:23:34;;;;;;;;;;;;;;;-0.14;100.00;96750.31;1035484;28;19932;-66
2021/04/13 02:24:09;;;;;;;;;;;;;;;-0.14;100.00;96747.75;1035776;28;19959;-66
2021/04/13 02:24:39;;;;;;;;;;;;;;;-0.15;100.00;96753.88;1035186;28;20554;-67
2021/04/13 02:25:10;;;;;;;;;;;;;;;-0.15;100.00;96751.31;1032509;28;19948;-65
2021/04/13 02:25:40;;;;;;;;;;;;;;;-0.16;100.00;96750.50;1034518;28;19917;-66
2021/04/13 02:26:11;;;;;;;;;;;;;;;-0.17;100.00;96750.66;1029553;28;20562;-67
2021/04/13 02:26:42;;;;;;;;;;;;;;;-0.16;100.00;96747.13;1030910;28;19918;-67
2021/04/13 02:27:13;;;;;;;;;;;;;;;-0.16;100.00;96752.28;1038519;28;19963;-67
2021/04/13 02:27:44;;;;;;;;;;;;;;;-0.17;100.00;96748.88;1027897;28;20490;-66
2021/04/13 02:28:15;;;;;;;;;;;;;;;-0.16;100.00;96752.28;1024753;28;19914;-67
2021/04/13 02:28:45;;;;;;;;;;;;;;;-0.17;100.00;96746.31;1021101;28;19956;-67
2021/04/13 02:29:19;;;;;;;;;;;;;;;-0.15;100.00;96748.72;1023992;28;19973;-69
2021/04/13 02:29:50;;;;;;;;;;;;;;;-0.37;100.00;96720.16;1032465;28;19921;-68
2021/04/13 02:30:26;;;;;;;;;;;;;;;-0.17;100.00;96748.88;1038488;28;19952;-67
2021/04/13 02:30:56;;;;;;;;;;;;;;;-0.16;100.00;96749.72;1041147;28;19909;-67
2021/04/13 02:31:37;;;;;;;;;;;;;;;-0.17;100.00;96750.66;1038663;28;19913;-65
2021/04/13 02:32:12;;;;;;;;;;;;;;;-0.18;100.00;96752.44;1033528;28;20177;-66
2021/04/13 02:32:45;;;;;;;;;;;;;;;-0.16;100.00;96752.28;1033222;28;19969;-67
2021/04/13 02:33:20;;;;;;;;;;;;;;;-0.17;100.00;96751.47;1033425;28;19913;-67
2021/04/13 02:33:51;;;;;;;;;;;;;;;-0.18;100.00;96749.88;1030867;28;19914;-67
2021/04/13 02:34:22;;;;;;;;;;;;;;;-0.17;100.00;96750.66;1035020;28;19913;-67
2021/04/13 02:34:56;;;;;;;;;;;;;;;-0.18;100.00;96746.47;1039299;28;19921;-65
2021/04/13 02:35:27;;;;;;;;;;;;;;;-0.18;100.00;96754.22;1035052;28;19916;-67
2021/04/13 02:35:58;;;;;;;;;;;;;;;-0.19;100.00;96755.22;1031065;28;19972;-68
2021/04/13 02:36:29;;;;;;;;;;;;;;;-0.19;100.00;96752.63;1029846;28;20823;-67
2021/04/13 02:37:00;;;;;;;;;;;;;;;-0.19;100.00;96755.22;1034330;28;19929;-66
2021/04/13 02:37:36;;;;;;;;;;;;;;;-0.18;100.00;96756.81;1040150;28;19963;-66
2021/04/13 02:38:07;;;;;;;;;;;;;;;-0.19;100.00;96748.28;1036931;28;20517;-66
2021/04/13 02:38:37;;;;;;;;;;;;;;;-0.19;100.00;96752.63;1029808;28;19917;-68
2021/04/13 02:39:12;;;;;;;;;;;;;;;-0.19;100.00;96758.59;1035504;28;19913;-66
2021/04/13 02:39:42;;;;;;;;;;;;;;;-0.18;100.00;96764.53;1035969;28;19913;-68
2021/04/13 02:40:17;;;;;;;;;;;;;;;-0.19;100.00;96758.59;1029906;28;19910;-67
2021/04/13 02:40:53;;;;;;;;;;;;;;;-0.18;100.00;96759.38;1031107;28;20509;-67
2021/04/13 02:41:26;;;;;;;;;;;;;;;-0.20;100.00;96756.97;1035671;28;19909;-67
2021/04/13 02:42:03;;;;;;;;;;;;;;;-0.21;100.00;96759.72;1034290;28;20322;-68
2021/04/13 02:42:37;;;;;;;;;;;;;;;-0.22;100.00;96760.69;1030984;28;19952;-66
2021/04/13 02:43:09;;;;;;;;;;;;;;;-0.21;100.00;96759.72;1033645;28;19917;-66
2021/04/13 02:43:44;;;;;;;;;;;;;;;-0.22;100.00;96755.53;1031264;28;19917;-67
2021/04/13 02:44:14;;;;;;;;;;;;;;;-0.21;100.00;96760.50;1039369;28;19971;-67
2021/04/13 02:45:01;;;;;;;;;;;;;;;-0.21;100.00;96750.19;1037978;28;19986;-66
2021/04/13 02:45:32;;;;;;;;;;;;;;;-0.21;100.00;96755.34;1033956;28;20402;-66
2021/04/13 02:46:05;;;;;;;;;;;;;;;-0.23;100.00;96754.75;1028944;28;19910;-66
2021/04/13 02:46:36;;;;;;;;;;;;;;;-0.22;100.00;96753.75;1029301;28;19992;-68
2021/04/13 02:47:07;;;;;;;;;;;;;;;-0.22;100.00;96758.13;1025610;28;20416;-68
2021/04/13 02:47:40;;;;;;;;;;;;;;;-0.18;100.00;96751.66;1032010;28;19913;-68
2021/04/13 02:48:24;;;;;;;;;;;;;;;-0.18;100.00;96755.03;1032069;28;20546;-67
2021/04/13 02:49:04;;;;;;;;;;;;;;;-0.21;100.00;96754.56;1034215;28;19909;-67
2021/04/13 02:49:38;;;;;;;;;;;;;;;-0.26;100.00;96750.72;1035618;28;19906;-67
2021/04/13 02:50:09;;;;;;;;;;;;;;;-0.26;100.00;96753.28;1039782;28;20395;-66
2021/04/13 02:50:40;;;;;;;;;;;;;;;-0.25;100.00;96751.53;1031777;28;19945;-67
2021/04/13 02:51:11;;;;;;;;;;;;;;;-0.26;100.00;96748.13;1034261;28;19906;-67
2021/04/13 02:51:45;;;;;;;;;;;;;;;-0.27;100.00;96751.69;1030752;28;19916;-67
2021/04/13 02:52:19;;;;;;;;;;;;;;;-0.27;100.00;96753.44;1035310;28;20448;-67
2021/04/13 02:52:50;;;;;;;;;;;;;;;-0.29;100.00;96750.25;1033542;28;19948;-66
2021/04/13 02:53:21;;;;;;;;;;;;;;;-0.27;100.00;96749.13;1031443;28;20708;-68
2021/04/13 02:53:54;;;;;;;;;;;;;;;-0.27;100.00;96746.53;1027048;28;19910;-66
2021/04/13 02:54:25;;;;;;;;;;;;;;;-0.27;100.00;96754.28;1031635;28;19917;-67
2021/04/13 02:54:58;;;;;;;;;;;;;;;-0.28;100.00;96744.91;1025603;28;20368;-67
2021/04/13 02:55:29;;;;;;;;;;;;;;;-0.29;100.00;96748.47;1023877;28;19954;-66
2021/04/13 02:55:59;;;;;;;;;;;;;;;-0.29;100.00;96753.63;1023576;29;20413;-66
2021/04/13 02:56:31;;;;;;;;;;;;;;;-0.30;100.00;96752.03;1031605;28;19916;-66
2021/04/13 02:57:03;;;;;;;;;;;;;;;-0.30;100.00;96752.03;1022014;28;20315;-67
2021/04/13 02:57:37;;;;;;;;;;;;;;;-0.29;100.00;96751.06;1026433;28;20307;-67
2021/04/13 02:58:08;;;;;;;;;;;;;;;-0.29;100.00;96748.47;1019541;29;19926;-67